createdAt,value
2018-02-06T00:00:21.107Z,14.80
2018-02-06T00:02:47.405Z,15.17
2018-02-06T00:05:13.376Z,14.30
2018-02-06T00:07:39.398Z,12.90
2018-02-06T00:10:05.492Z,13.13
2018-02-06T00:12:31.513Z,12.77
2018-02-06T00:14:57.481Z,14.10
2018-02-06T00:17:23.525Z,14.57
2018-02-06T00:19:49.606Z,15.90
2018-02-06T00:22:15.641Z,14.20
2018-02-06T00:24:41.664Z,12.20
2018-02-06T00:27:07.806Z,13.40
2018-02-06T00:29:33.792Z,12.90
2018-02-06T00:31:59.816Z,13.23
2018-02-06T00:34:25.868Z,12.73
2018-02-06T00:36:51.939Z,12.43
2018-02-06T00:39:18.097Z,15.07
2018-02-06T00:41:44.053Z,12.67
2018-02-06T00:44:10.072Z,11.87
2018-02-06T00:46:36.196Z,13.33
2018-02-06T00:49:02.245Z,12.50
2018-02-06T00:51:28.326Z,11.30
2018-02-06T00:53:54.356Z,14.23
2018-02-06T00:56:20.508Z,13.50
2018-02-06T00:58:46.522Z,12.90
2018-02-06T01:01:12.913Z,12.60
2018-02-06T01:03:38.899Z,12.83
2018-02-06T01:06:04.928Z,12.37
2018-02-06T01:08:30.940Z,13.37
2018-02-06T01:10:56.950Z,12.80
2018-02-06T01:13:22.912Z,12.10
2018-02-06T01:15:48.933Z,12.73
2018-02-06T01:18:14.916Z,12.77
2018-02-06T01:20:40.863Z,12.60
2018-02-06T01:23:06.953Z,13.50
2018-02-06T01:25:32.979Z,13.03
2018-02-06T01:27:59.036Z,13.60
2018-02-06T01:30:25.049Z,13.20
2018-02-06T01:32:51.073Z,13.50
2018-02-06T01:35:17.114Z,12.53
2018-02-06T01:37:43.149Z,14.70
2018-02-06T01:40:09.113Z,13.30
2018-02-06T01:42:35.103Z,14.20
2018-02-06T01:45:01.218Z,12.93
2018-02-06T01:47:27.230Z,13.63
2018-02-06T01:50:04.325Z,12.30
2018-02-06T01:52:30.372Z,13.40
2018-02-06T01:54:56.412Z,14.87
2018-02-06T01:57:22.435Z,12.63
2018-02-06T01:59:48.393Z,12.10
2018-02-06T02:02:14.416Z,12.17
2018-02-06T02:04:40.500Z,14.20
2018-02-06T02:07:06.489Z,12.40
2018-02-06T02:09:32.543Z,12.97
2018-02-06T02:11:58.553Z,12.90
2018-02-06T02:14:24.593Z,12.40
2018-02-06T02:16:50.585Z,13.60
2018-02-06T02:19:16.636Z,13.50
2018-02-06T02:21:42.649Z,13.93
2018-02-06T02:24:08.673Z,11.07
2018-02-06T02:26:34.709Z,13.17
2018-02-06T02:29:00.739Z,11.57
2018-02-06T02:31:26.780Z,11.87
2018-02-06T02:33:52.816Z,12.20
2018-02-06T02:36:18.843Z,12.63
2018-02-06T02:38:44.900Z,13.50
2018-02-06T02:41:10.924Z,12.10
2018-02-06T04:40:24.033Z,12.23
2018-02-06T04:42:50.061Z,14.83
2018-02-06T04:45:16.097Z,12.23
2018-02-06T04:47:42.148Z,11.13
2018-02-06T04:50:08.153Z,13.37
2018-02-06T04:52:34.180Z,12.40
2018-02-06T04:55:00.280Z,14.37
2018-02-06T04:57:26.305Z,13.00
2018-02-06T04:59:52.380Z,14.00
2018-02-06T05:02:18.432Z,15.20
2018-02-06T05:04:44.450Z,15.53
2018-02-06T05:07:10.473Z,15.10
2018-02-06T05:09:36.485Z,13.13
2018-02-06T05:12:02.500Z,13.80
2018-02-06T05:14:28.496Z,15.20
2018-02-06T05:16:54.515Z,13.13
2018-02-06T05:19:20.594Z,13.90
2018-02-06T05:21:46.606Z,15.40
2018-02-06T05:24:12.644Z,15.77
2018-02-06T05:26:38.681Z,15.10
2018-02-06T05:29:04.697Z,15.70
2018-02-06T05:31:30.739Z,18.03
2018-02-06T05:33:56.788Z,15.63
2018-02-06T05:36:22.798Z,11.77
2018-02-06T05:38:48.944Z,13.50
2018-02-06T05:41:14.972Z,16.27
2018-02-06T05:43:40.979Z,14.70
2018-02-06T05:46:07.070Z,12.20
2018-02-06T05:48:33.134Z,11.90
2018-02-06T05:50:59.120Z,11.67
2018-02-06T05:53:25.124Z,13.83
2018-02-06T05:55:51.168Z,13.70
2018-02-06T05:58:17.353Z,12.40
2018-02-06T06:00:43.441Z,12.77
2018-02-06T06:03:09.441Z,13.60
2018-02-06T06:05:35.490Z,13.87
2018-02-06T06:08:01.464Z,14.13
2018-02-06T06:10:27.465Z,14.60
2018-02-06T06:12:53.496Z,15.20
2018-02-06T06:15:19.517Z,13.60
2018-02-06T06:17:45.604Z,13.47
2018-02-06T06:20:11.629Z,12.67
2018-02-06T06:22:37.794Z,14.77
2018-02-06T06:25:03.995Z,12.03
2018-02-06T06:27:30.030Z,13.00
2018-02-06T06:29:56.129Z,12.80
2018-02-06T06:32:22.177Z,13.77
2018-02-06T06:34:48.220Z,14.30
2018-02-06T06:37:14.376Z,13.97
2018-02-06T06:39:40.464Z,14.03
2018-02-06T06:42:06.493Z,14.70
2018-02-06T06:44:32.525Z,14.63
2018-02-06T06:46:58.681Z,13.77
2018-02-06T06:49:24.703Z,14.67
2018-02-06T06:51:50.744Z,14.47
2018-02-06T06:54:16.855Z,16.17
2018-02-06T06:56:42.833Z,14.53
2018-02-06T06:59:08.819Z,15.53
2018-02-06T07:01:34.912Z,13.50
2018-02-06T07:04:00.965Z,14.63
2018-02-06T07:06:27.065Z,16.50
2018-02-06T07:08:53.015Z,15.63
2018-02-06T07:11:19.032Z,14.23
2018-02-06T07:13:45.030Z,14.93
2018-02-06T07:16:11.087Z,16.77
2018-02-06T07:18:37.226Z,16.20
2018-02-06T07:21:03.285Z,16.43
2018-02-06T07:23:29.281Z,16.57
2018-02-06T07:25:55.288Z,17.27
2018-02-06T07:28:21.322Z,15.20
2018-02-06T07:30:47.353Z,15.80
2018-02-06T07:33:13.677Z,16.50
2018-02-06T07:35:39.686Z,17.20
2018-02-06T07:38:05.744Z,18.60
2018-02-06T07:40:31.752Z,18.00
2018-02-06T07:42:57.733Z,17.87
2018-02-06T07:45:23.823Z,17.67
2018-02-06T07:47:49.874Z,18.23
2018-02-06T07:50:15.835Z,16.63
2018-02-06T07:52:41.853Z,15.50
2018-02-06T07:55:07.880Z,16.23
2018-02-06T07:57:33.885Z,17.23
2018-02-06T07:59:59.941Z,17.50
2018-02-06T08:02:25.883Z,16.37
2018-02-06T08:04:51.900Z,18.47
2018-02-06T08:07:17.942Z,16.67
2018-02-06T08:09:43.937Z,18.10
2018-02-06T08:12:09.920Z,18.93
2018-02-06T08:14:35.952Z,20.37
2018-02-06T08:17:01.992Z,18.90
2018-02-06T08:19:28.040Z,17.83
2018-02-06T08:21:54.125Z,21.40
2018-02-06T08:24:20.193Z,19.43
2018-02-06T08:26:46.217Z,17.00
2018-02-06T08:29:12.228Z,17.20
2018-02-06T08:31:38.248Z,16.80
2018-02-06T08:34:04.275Z,16.67
2018-02-06T08:36:30.353Z,19.40
2018-02-06T08:38:56.308Z,16.87
2018-02-06T08:41:22.337Z,16.03
2018-02-06T08:43:48.845Z,17.20
2018-02-06T08:46:14.829Z,19.67
2018-02-06T08:48:40.897Z,17.80
2018-02-06T08:51:06.926Z,17.90
2018-02-06T08:53:32.957Z,18.77
2018-02-06T08:55:58.960Z,16.10
2018-02-06T08:58:24.963Z,16.23
2018-02-06T09:00:51.242Z,18.27
2018-02-06T09:03:17.292Z,18.00
2018-02-06T09:05:43.296Z,17.17
2018-02-06T09:08:09.324Z,19.07
2018-02-06T09:10:35.329Z,18.17
2018-02-06T09:13:01.371Z,18.00
2018-02-06T09:15:27.394Z,18.93
2018-02-06T09:17:53.441Z,19.20
2018-02-06T09:20:19.457Z,16.87
2018-02-06T09:22:45.488Z,18.70
2018-02-06T09:25:11.574Z,18.20
2018-02-06T09:27:37.576Z,20.83
2018-02-06T09:30:03.697Z,18.43
2018-02-06T09:32:29.720Z,19.03
2018-02-06T09:34:55.762Z,17.97
2018-02-06T09:37:21.793Z,17.60
2018-02-06T09:39:47.793Z,18.03
2018-02-06T09:42:13.853Z,18.13
2018-02-06T09:44:39.921Z,16.43
2018-02-06T09:47:05.944Z,17.60
2018-02-06T09:49:31.949Z,18.90
2018-02-06T09:51:58.086Z,17.87
2018-02-06T09:54:24.440Z,20.23
2018-02-06T09:56:50.493Z,18.60
2018-02-06T09:59:16.655Z,18.03
2018-02-06T10:01:42.622Z,17.20
2018-02-06T10:04:08.631Z,17.43
2018-02-06T10:06:34.647Z,18.70
2018-02-06T10:09:00.721Z,17.50
2018-02-06T10:11:26.764Z,19.93
2018-02-06T10:13:52.780Z,17.10
2018-02-06T10:16:18.761Z,17.03
2018-02-06T10:18:44.769Z,18.70
2018-02-06T10:21:10.801Z,17.87
2018-02-06T10:23:36.868Z,16.97
2018-02-06T10:26:02.854Z,18.57
2018-02-06T10:28:29.292Z,17.37
2018-02-06T10:30:55.308Z,17.67
2018-02-06T10:33:21.311Z,15.67
2018-02-06T10:35:54.427Z,15.00
2018-02-06T10:38:20.443Z,19.23
2018-02-06T10:40:46.444Z,20.27
2018-02-06T10:43:12.524Z,16.27
2018-02-06T10:45:38.934Z,17.27
2018-02-06T10:48:04.956Z,20.27
2018-02-06T10:50:30.946Z,20.70
2018-02-06T10:52:57.022Z,15.37
2018-02-06T10:55:23.036Z,17.03
2018-02-06T10:57:49.069Z,20.40
2018-02-06T11:00:15.078Z,17.20
2018-02-06T11:02:41.427Z,14.97
2018-02-06T11:05:07.431Z,17.37
2018-02-06T11:07:33.439Z,16.90
2018-02-06T11:09:59.520Z,16.50
2018-02-06T11:12:25.552Z,16.57
2018-02-06T11:14:51.953Z,15.90
2018-02-06T11:17:17.999Z,16.23
2018-02-06T11:19:44.087Z,16.97
2018-02-06T11:22:10.124Z,14.70
2018-02-06T11:24:36.137Z,16.37
2018-02-06T11:27:02.590Z,16.40
2018-02-06T11:29:28.599Z,15.73
2018-02-06T11:31:54.700Z,18.67
2018-02-06T11:34:20.733Z,15.97
2018-02-06T11:36:46.804Z,16.67
2018-02-06T11:39:13.215Z,17.30
2018-02-06T11:41:39.228Z,18.47
2018-02-06T11:44:05.224Z,15.20
2018-02-06T11:46:31.340Z,17.70
2018-02-06T11:48:57.286Z,14.60
2018-02-06T11:51:23.633Z,17.00
2018-02-06T11:53:49.612Z,16.97
2018-02-06T11:56:15.656Z,14.10
2018-02-06T11:58:41.685Z,14.60
2018-02-06T12:01:07.755Z,17.03
2018-02-06T12:03:34.207Z,19.27
2018-02-06T12:06:00.180Z,15.23
2018-02-06T12:08:26.205Z,16.70
2018-02-06T12:10:52.240Z,16.20
2018-02-06T12:13:18.280Z,17.17
2018-02-06T12:15:44.853Z,18.27
2018-02-06T12:18:10.898Z,19.53
2018-02-06T12:20:36.912Z,15.77
2018-02-06T12:23:02.963Z,16.47
2018-02-06T12:25:28.953Z,16.20
2018-02-06T12:27:55.309Z,16.37
2018-02-06T12:30:21.350Z,16.10
2018-02-06T12:32:47.360Z,15.00
2018-02-06T12:35:14.263Z,15.57
2018-02-06T12:37:40.296Z,15.47
2018-02-06T12:40:06.727Z,14.97
2018-02-06T12:42:32.799Z,16.20
2018-02-06T12:44:58.805Z,16.97
2018-02-06T12:47:24.893Z,15.77
2018-02-06T12:49:50.911Z,15.37
2018-02-06T12:52:16.980Z,14.90
2018-02-06T12:54:42.977Z,15.43
2018-02-06T12:57:09.029Z,14.27
2018-02-06T12:59:35.086Z,15.90
2018-02-06T13:02:01.107Z,15.60
2018-02-06T13:04:27.487Z,15.60
2018-02-06T13:06:53.511Z,16.13
2018-02-06T13:09:19.511Z,15.60
2018-02-06T13:11:45.555Z,17.57
2018-02-06T13:14:11.553Z,17.50
2018-02-06T13:16:37.564Z,18.50
2018-02-06T13:19:03.580Z,21.80
2018-02-06T13:21:29.970Z,17.60
2018-02-06T13:23:56.147Z,18.10
2018-02-06T13:26:22.169Z,19.70
2018-02-06T13:28:48.150Z,18.40
2018-02-06T13:31:14.175Z,17.07
2018-02-06T13:33:40.263Z,20.00
2018-02-06T13:36:06.264Z,17.07
2018-02-06T13:38:32.659Z,21.23
2018-02-06T13:40:58.688Z,15.77
2018-02-06T13:43:24.663Z,19.20
2018-02-06T13:45:50.723Z,19.00
2018-02-06T13:48:16.829Z,17.90
2018-02-06T13:50:43.246Z,16.10
2018-02-06T13:53:09.308Z,16.07
2018-02-06T13:55:35.385Z,18.50
2018-02-06T13:58:01.468Z,18.17
2018-02-06T14:00:27.581Z,14.30
2018-02-06T14:02:53.640Z,17.10
2018-02-06T14:05:19.668Z,19.97
2018-02-06T14:07:46.015Z,16.60
2018-02-06T14:10:12.021Z,18.73
2018-02-06T14:12:38.001Z,19.83
2018-02-06T14:15:04.064Z,19.17
2018-02-06T14:17:30.080Z,18.50
2018-02-06T14:19:56.133Z,19.30
2018-02-06T14:22:22.152Z,19.80
2018-02-06T14:24:48.587Z,20.03
2018-02-06T14:27:14.616Z,16.40
2018-02-06T14:29:40.669Z,16.90
2018-02-06T14:32:06.721Z,18.20
2018-02-06T14:34:32.753Z,16.77
2018-02-06T14:36:58.849Z,17.13
2018-02-06T14:39:24.804Z,16.30
2018-02-06T14:41:51.273Z,18.83
2018-02-06T14:44:17.446Z,16.83
2018-02-06T14:46:43.514Z,16.87
2018-02-06T14:49:09.634Z,16.30
2018-02-06T14:51:35.673Z,17.77
2018-02-06T14:54:01.652Z,17.57
2018-02-06T14:56:27.642Z,16.07
2018-02-06T14:58:53.641Z,18.27
2018-02-06T15:01:19.685Z,18.93
2018-02-06T15:03:46.108Z,17.30
2018-02-06T15:06:12.144Z,19.07
2018-02-06T15:08:38.241Z,18.70
2018-02-06T15:11:04.298Z,19.93
2018-02-06T15:13:30.340Z,17.60
2018-02-06T15:15:56.738Z,18.23
2018-02-06T15:18:22.752Z,20.27
2018-02-06T15:20:48.756Z,14.23
2018-02-06T15:23:14.822Z,18.00
2018-02-06T15:25:40.882Z,18.67
2018-02-06T15:28:06.852Z,22.20
2018-02-06T15:30:32.945Z,22.73
2018-02-06T15:32:58.984Z,19.60
2018-02-06T15:35:25.051Z,22.20
2018-02-06T15:37:51.096Z,21.63
2018-02-06T15:40:17.513Z,19.30
2018-02-06T15:42:43.843Z,19.60
2018-02-06T15:45:10.484Z,20.53
2018-02-06T15:47:36.508Z,20.07
2018-02-06T15:50:02.625Z,20.40
2018-02-06T15:52:28.629Z,20.30
2018-02-06T15:54:54.693Z,19.97
2018-02-06T15:57:20.844Z,19.43
2018-02-06T15:59:49.566Z,22.60
2018-02-06T16:02:15.725Z,19.80
2018-02-06T16:04:42.695Z,23.40
2018-02-06T16:07:08.980Z,21.20
2018-02-06T16:09:36.545Z,20.60
2018-02-06T16:14:35.993Z,20.90
2018-02-06T16:17:02.178Z,20.47
2018-02-06T16:19:28.398Z,22.17
2018-02-06T16:21:55.113Z,22.70
2018-02-06T16:24:21.266Z,21.13
2018-02-06T16:26:47.403Z,25.60
2018-02-06T16:29:13.560Z,20.90
2018-02-06T16:31:39.686Z,23.90
2018-02-06T16:34:05.782Z,24.30
2018-02-06T16:36:31.810Z,21.90
2018-02-06T16:38:58.438Z,22.90
2018-02-06T16:41:24.481Z,23.87
2018-02-06T16:43:50.531Z,22.50
2018-02-06T16:46:16.841Z,22.73
2018-02-06T16:48:42.922Z,21.60
2018-02-06T16:51:09.012Z,25.17
2018-02-06T16:53:35.324Z,21.53
2018-02-06T16:56:01.846Z,23.57
2018-02-06T16:58:27.922Z,23.77
2018-02-06T17:00:54.022Z,25.87
2018-02-06T17:03:20.109Z,22.50
2018-02-06T17:05:46.120Z,19.37
2018-02-06T17:08:12.549Z,19.70
2018-02-06T17:10:38.628Z,21.13
2018-02-06T17:13:04.761Z,19.70
2018-02-06T17:15:30.834Z,21.07
2018-02-06T17:17:56.886Z,20.10
2018-02-06T17:20:22.935Z,19.33
2018-02-06T17:22:49.077Z,21.60
2018-02-06T17:25:15.550Z,20.53
2018-02-06T17:27:41.597Z,18.60
2018-02-06T17:30:07.619Z,19.17
2018-02-06T17:32:33.653Z,19.93
2018-02-06T17:34:59.753Z,20.13
2018-02-06T17:37:25.798Z,18.13
2018-02-06T17:39:51.813Z,21.57
2018-02-06T17:42:17.910Z,20.70
2018-02-06T17:44:43.938Z,21.50
2018-02-06T17:47:10.377Z,19.83
2018-02-06T17:49:36.374Z,21.10
2018-02-06T17:52:02.374Z,19.30
2018-02-06T17:54:28.996Z,23.13
2018-02-06T17:56:55.169Z,21.63
2018-02-06T17:59:21.174Z,20.60
2018-02-06T18:01:47.279Z,20.23
2018-02-06T18:04:13.355Z,21.53
2018-02-06T18:06:39.805Z,22.83
2018-02-06T18:09:05.897Z,22.40
2018-02-06T18:11:31.980Z,21.17
2018-02-06T18:13:58.029Z,20.37
2018-02-06T18:16:24.111Z,21.90
2018-02-06T18:18:50.322Z,19.93
2018-02-06T18:21:16.462Z,20.53
2018-02-06T18:23:42.913Z,20.03
2018-02-06T18:26:09.006Z,22.47
2018-02-06T18:28:35.005Z,21.93
2018-02-06T18:31:01.223Z,23.13
2018-02-06T18:33:27.279Z,21.60
2018-02-06T18:35:53.656Z,21.80
2018-02-06T18:38:19.835Z,19.80
2018-02-06T18:40:45.897Z,21.67
2018-02-06T18:43:11.993Z,24.77
2018-02-06T18:45:38.092Z,21.60
2018-02-06T18:48:04.114Z,20.97
2018-02-06T18:50:30.170Z,22.50
2018-02-06T18:52:56.313Z,22.90
2018-02-06T18:55:22.376Z,26.27
2018-02-06T18:57:48.774Z,23.90
2018-02-06T19:00:14.820Z,22.27
2018-02-06T19:02:41.022Z,24.70
2018-02-06T19:05:07.097Z,24.90
2018-02-06T19:07:33.236Z,23.30
2018-02-06T19:09:59.290Z,22.40
2018-02-06T19:12:25.733Z,22.27
2018-02-06T19:14:52.112Z,21.30
2018-02-06T19:17:18.169Z,21.53
2018-02-06T19:19:44.260Z,22.90
2018-02-06T19:22:10.384Z,20.77
2018-02-06T19:24:36.669Z,22.70
2018-02-06T19:27:02.814Z,22.50
2018-02-06T19:29:29.317Z,22.37
2018-02-06T19:31:55.405Z,23.17
2018-02-06T19:34:21.429Z,22.13
2018-02-06T19:36:49.312Z,20.10
2018-02-06T19:39:15.373Z,19.43
2018-02-06T19:41:42.425Z,21.80
2018-02-06T19:44:08.562Z,22.00
2018-02-06T19:46:34.674Z,24.07
2018-02-06T19:49:00.743Z,22.47
2018-02-06T19:51:27.879Z,21.60
2018-02-06T19:53:53.970Z,24.47
2018-02-06T19:56:19.993Z,24.50
2018-02-06T19:58:47.433Z,23.20
2018-02-06T20:01:14.527Z,24.20
2018-02-06T20:03:41.098Z,22.30
2018-02-06T20:06:07.136Z,23.20
2018-02-06T20:08:33.198Z,21.63
2018-02-06T20:10:59.321Z,21.30
2018-02-06T20:13:26.444Z,23.13
2018-02-06T20:15:52.884Z,22.63
2018-02-06T20:18:18.925Z,23.77
2018-02-06T20:20:45.098Z,22.43
2018-02-06T20:23:12.165Z,24.87
2018-02-06T20:25:38.293Z,25.00
2018-02-06T20:28:04.399Z,24.10
2018-02-06T20:30:30.461Z,21.03
2018-02-06T20:32:56.530Z,22.47
2018-02-06T20:35:22.618Z,23.50
2018-02-06T20:37:48.702Z,21.27
2018-02-06T20:40:14.824Z,23.90
2018-02-06T20:42:40.856Z,23.80
2018-02-06T20:45:07.341Z,23.90
2018-02-06T20:47:33.390Z,24.63
2018-02-06T20:49:59.346Z,26.07
2018-02-06T20:52:26.433Z,24.60
2018-02-06T20:54:52.475Z,25.90
2018-02-06T20:57:18.548Z,26.43
2018-02-06T20:59:44.667Z,27.93
2018-02-06T21:02:10.707Z,28.20
2018-02-06T21:04:36.721Z,31.03
2018-02-06T21:07:02.764Z,27.97
2018-02-06T21:09:29.139Z,29.73
2018-02-06T21:11:55.184Z,26.67
2018-02-06T21:14:21.643Z,28.90
2018-02-06T21:16:47.657Z,29.00
2018-02-06T21:19:13.695Z,28.57
2018-02-06T21:21:39.769Z,28.40
2018-02-06T21:24:05.853Z,26.87
2018-02-06T21:26:31.890Z,30.60
2018-02-06T21:28:57.975Z,30.20
2018-02-06T21:31:24.407Z,32.70
2018-02-06T21:33:50.333Z,34.17
2018-02-06T21:36:16.396Z,29.53
2018-02-06T21:38:42.492Z,29.43
2018-02-06T21:41:08.524Z,29.80
2018-02-06T21:43:34.509Z,29.00
2018-02-06T21:46:00.566Z,28.70
2018-02-06T21:48:26.960Z,34.83
2018-02-06T21:50:53.016Z,31.17
2018-02-06T21:53:19.050Z,31.13
2018-02-06T21:55:45.106Z,28.13
2018-02-06T21:58:11.148Z,28.77
2018-02-06T22:00:37.271Z,28.20
2018-02-06T22:03:03.264Z,27.70
2018-02-06T22:05:29.606Z,28.53
2018-02-06T22:07:55.680Z,29.70
2018-02-06T22:10:21.709Z,29.13
2018-02-06T22:12:47.847Z,26.87
2018-02-06T22:15:13.877Z,27.63
2018-02-06T22:17:39.954Z,27.70
2018-02-06T22:20:05.992Z,28.90
2018-02-06T22:22:32.443Z,26.77
2018-02-06T22:24:58.508Z,29.17
2018-02-06T22:27:24.601Z,27.73
2018-02-06T22:29:50.622Z,26.70
2018-02-06T22:32:16.622Z,28.60
2018-02-06T22:34:42.641Z,27.70
2018-02-06T22:37:08.686Z,26.33
2018-02-06T22:39:35.138Z,29.37
2018-02-06T22:42:01.154Z,29.60
2018-02-06T22:44:27.196Z,26.30
2018-02-06T22:46:53.362Z,25.60
2018-02-06T22:49:19.411Z,26.73
2018-02-06T22:51:45.434Z,29.07
2018-02-06T22:54:11.445Z,30.00
2018-02-06T22:56:37.485Z,28.33
2018-02-06T22:59:03.499Z,28.23
2018-02-06T23:01:29.522Z,26.10
2018-02-06T23:03:55.562Z,27.57
2018-02-06T23:06:21.645Z,28.67
2018-02-06T23:08:48.044Z,27.43
2018-02-06T23:11:14.055Z,27.97
2018-02-06T23:13:40.055Z,28.50
2018-02-06T23:16:06.083Z,28.07
2018-02-06T23:18:32.093Z,27.80
2018-02-06T23:20:58.173Z,28.73
2018-02-06T23:23:24.197Z,28.63
2018-02-06T23:25:50.222Z,33.63
2018-02-06T23:28:16.290Z,31.20
2018-02-06T23:30:42.601Z,29.20
2018-02-06T23:33:08.646Z,28.33
2018-02-06T23:35:34.677Z,27.77
2018-02-06T23:38:00.729Z,28.40
2018-02-06T23:40:26.777Z,27.60
2018-02-06T23:42:52.845Z,28.33
2018-02-06T23:45:18.873Z,27.50
2018-02-06T23:47:44.899Z,26.73
2018-02-06T23:50:10.923Z,25.43
2018-02-06T23:52:36.952Z,24.70
2018-02-06T23:55:03.336Z,25.80
2018-02-06T23:57:29.769Z,27.00
2018-02-06T23:59:55.792Z,27.97
